sensor_id;sensor_type;location;lat;lon;timestamp;pressure;altitude;pressure_sealevel;temperature;humidity
59487;BME280;45298;54.918;73.504;2023-06-04T00:00:07;100448.34;;;25.19;38.47
59487;BME280;45298;54.918;73.504;2023-06-04T00:02:37;100447.50;;;25.42;39.04
59487;BME280;45298;54.918;73.504;2023-06-04T00:05:06;100438.81;;;25.47;38.79
59487;BME280;45298;54.918;73.504;2023-06-04T00:07:35;100454.47;;;24.90;39.97
59487;BME280;45298;54.918;73.504;2023-06-04T00:10:05;100447.00;;;24.21;41.26
59487;BME280;45298;54.918;73.504;2023-06-04T00:12:34;100448.94;;;23.79;42.27
59487;BME280;45298;54.918;73.504;2023-06-04T00:15:02;100442.41;;;23.32;43.28
59487;BME280;45298;54.918;73.504;2023-06-04T00:17:31;100458.56;;;23.07;45.00
59487;BME280;45298;54.918;73.504;2023-06-04T00:20:01;100424.88;;;22.76;46.02
59487;BME280;45298;54.918;73.504;2023-06-04T00:22:30;100438.06;;;22.71;45.56
59487;BME280;45298;54.918;73.504;2023-06-04T00:24:59;100444.81;;;22.67;46.49
59487;BME280;45298;54.918;73.504;2023-06-04T00:27:30;100397.88;;;22.25;47.23
59487;BME280;45298;54.918;73.504;2023-06-04T00:29:58;100442.53;;;22.46;47.21
59487;BME280;45298;54.918;73.504;2023-06-04T00:32:27;100451.50;;;22.46;46.15
59487;BME280;45298;54.918;73.504;2023-06-04T00:34:56;100441.31;;;22.40;45.55
59487;BME280;45298;54.918;73.504;2023-06-04T00:37:29;100450.47;;;22.99;45.59
59487;BME280;45298;54.918;73.504;2023-06-04T00:39:59;100440.97;;;24.02;42.84
59487;BME280;45298;54.918;73.504;2023-06-04T00:42:27;100450.88;;;24.98;41.23
59487;BME280;45298;54.918;73.504;2023-06-04T00:44:57;100452.63;;;25.75;38.54
59487;BME280;45298;54.918;73.504;2023-06-04T00:47:26;100460.91;;;26.42;39.19
59487;BME280;45298;54.918;73.504;2023-06-04T00:49:59;100458.75;;;26.89;38.92
59487;BME280;45298;54.918;73.504;2023-06-04T00:52:28;100453.63;;;27.44;38.41
59487;BME280;45298;54.918;73.504;2023-06-04T00:54:58;100461.34;;;27.91;37.62
59487;BME280;45298;54.918;73.504;2023-06-04T00:57:26;100447.50;;;28.28;37.54
59487;BME280;45298;54.918;73.504;2023-06-04T00:59:55;100446.19;;;28.65;37.36
59487;BME280;45298;54.918;73.504;2023-06-04T01:02:26;100457.66;;;29.16;37.88
59487;BME280;45298;54.918;73.504;2023-06-04T01:05:14;100459.81;;;29.61;37.91
59487;BME280;45298;54.918;73.504;2023-06-04T01:07:46;100438.75;;;29.82;37.62
59487;BME280;45298;54.918;73.504;2023-06-04T01:10:15;100459.31;;;30.25;37.01
59487;BME280;45298;54.918;73.504;2023-06-04T01:12:44;100448.69;;;30.49;35.65
59487;BME280;45298;54.918;73.504;2023-06-04T01:15:13;100461.59;;;30.80;35.59
59487;BME280;45298;54.918;73.504;2023-06-04T01:17:47;100459.38;;;31.02;35.01
59487;BME280;45298;54.918;73.504;2023-06-04T01:20:33;100465.47;;;31.37;35.96
59487;BME280;45298;54.918;73.504;2023-06-04T01:25:57;100461.31;;;31.78;36.20
59487;BME280;45298;54.918;73.504;2023-06-04T01:28:26;100451.59;;;31.82;37.72
59487;BME280;45298;54.918;73.504;2023-06-04T01:30:55;100452.81;;;31.86;35.00
59487;BME280;45298;54.918;73.504;2023-06-04T01:33:25;100460.28;;;31.98;35.85
59487;BME280;45298;54.918;73.504;2023-06-04T01:35:54;100425.84;;;31.83;34.94
59487;BME280;45298;54.918;73.504;2023-06-04T01:38:23;100457.25;;;32.06;35.20
59487;BME280;45298;54.918;73.504;2023-06-04T01:40:51;100455.88;;;32.15;34.18
59487;BME280;45298;54.918;73.504;2023-06-04T01:43:24;100454.97;;;32.21;33.57
59487;BME280;45298;54.918;73.504;2023-06-04T01:45:53;100467.72;;;32.34;31.54
59487;BME280;45298;54.918;73.504;2023-06-04T01:48:22;100428.44;;;32.15;33.55
59487;BME280;45298;54.918;73.504;2023-06-04T01:50:51;100471.59;;;32.45;32.31
59487;BME280;45298;54.918;73.504;2023-06-04T01:53:21;100478.94;;;32.63;33.56
59487;BME280;45298;54.918;73.504;2023-06-04T01:55:50;100469.56;;;32.71;34.95
59487;BME280;45298;54.918;73.504;2023-06-04T01:58:19;100474.91;;;32.84;33.81
59487;BME280;45298;54.918;73.504;2023-06-04T02:00:55;100473.13;;;32.90;34.15
59487;BME280;45298;54.918;73.504;2023-06-04T02:03:28;100471.34;;;32.96;30.85
59487;BME280;45298;54.918;73.504;2023-06-04T02:06:01;100478.78;;;33.07;32.97
59487;BME280;45298;54.918;73.504;2023-06-04T02:08:29;100485.47;;;33.11;30.67
59487;BME280;45298;54.918;73.504;2023-06-04T02:10:58;100483.25;;;32.90;28.73
59487;BME280;45298;54.918;73.504;2023-06-04T02:13:27;100475.34;;;32.81;27.89
59487;BME280;45298;54.918;73.504;2023-06-04T02:15:56;100476.50;;;32.92;28.72
59487;BME280;45298;54.918;73.504;2023-06-04T02:18:25;100478.38;;;32.92;28.11
59487;BME280;45298;54.918;73.504;2023-06-04T02:20:56;100484.03;;;32.97;27.37
59487;BME280;45298;54.918;73.504;2023-06-04T02:23:25;100475.63;;;32.92;28.29
59487;BME280;45298;54.918;73.504;2023-06-04T02:25:54;100473.50;;;32.94;30.12
59487;BME280;45298;54.918;73.504;2023-06-04T02:28:22;100476.25;;;32.94;30.09
59487;BME280;45298;54.918;73.504;2023-06-04T02:30:51;100476.09;;;32.89;28.02
59487;BME280;45298;54.918;73.504;2023-06-04T02:33:20;100484.84;;;32.97;28.25
59487;BME280;45298;54.918;73.504;2023-06-04T02:35:49;100479.44;;;32.91;28.43
59487;BME280;45298;54.918;73.504;2023-06-04T02:38:18;100486.63;;;32.92;29.62
59487;BME280;45298;54.918;73.504;2023-06-04T02:40:47;100482.97;;;32.79;29.08
59487;BME280;45298;54.918;73.504;2023-06-04T02:43:16;100481.47;;;32.83;28.48
59487;BME280;45298;54.918;73.504;2023-06-04T02:45:44;100479.78;;;32.82;29.41
59487;BME280;45298;54.918;73.504;2023-06-04T02:48:13;100481.47;;;32.83;27.84
59487;BME280;45298;54.918;73.504;2023-06-04T02:50:43;100477.19;;;32.69;28.85
59487;BME280;45298;54.918;73.504;2023-06-04T02:53:12;100469.34;;;32.73;28.65
59487;BME280;45298;54.918;73.504;2023-06-04T02:55:43;100466.94;;;32.76;27.36
59487;BME280;45298;54.918;73.504;2023-06-04T02:58:12;100471.22;;;32.91;28.29
59487;BME280;45298;54.918;73.504;2023-06-04T03:00:42;100466.47;;;32.98;26.74
59487;BME280;45298;54.918;73.504;2023-06-04T03:03:11;100471.63;;;33.18;28.00
59487;BME280;45298;54.918;73.504;2023-06-04T03:05:41;100469.53;;;33.32;28.10
59487;BME280;45298;54.918;73.504;2023-06-04T03:08:11;100469.53;;;33.32;28.90
59487;BME280;45298;54.918;73.504;2023-06-04T03:10:40;100461.19;;;33.39;27.65
59487;BME280;45298;54.918;73.504;2023-06-04T03:13:09;100461.31;;;33.44;27.81
59487;BME280;45298;54.918;73.504;2023-06-04T03:15:38;100462.63;;;33.65;28.78
59487;BME280;45298;54.918;73.504;2023-06-04T03:18:07;100460.28;;;33.93;29.23
59487;BME280;45298;54.918;73.504;2023-06-04T03:20:36;100470.09;;;34.00;30.33
59487;BME280;45298;54.918;73.504;2023-06-04T03:23:07;100459.75;;;34.08;28.36
59487;BME280;45298;54.918;73.504;2023-06-04T03:25:35;100455.94;;;34.09;27.69
59487;BME280;45298;54.918;73.504;2023-06-04T03:28:04;100436.19;;;34.12;27.60
59487;BME280;45298;54.918;73.504;2023-06-04T03:30:33;100460.78;;;34.42;26.80
59487;BME280;45298;54.918;73.504;2023-06-04T03:33:04;100456.34;;;34.53;27.68
59487;BME280;45298;54.918;73.504;2023-06-04T03:35:33;100458.72;;;34.61;28.49
59487;BME280;45298;54.918;73.504;2023-06-04T03:38:03;100469.66;;;34.73;26.39
59487;BME280;45298;54.918;73.504;2023-06-04T03:40:33;100467.91;;;34.84;26.23
59487;BME280;45298;54.918;73.504;2023-06-04T03:43:03;100465.13;;;34.96;27.24
59487;BME280;45298;54.918;73.504;2023-06-04T03:45:33;100471.19;;;35.10;28.26
59487;BME280;45298;54.918;73.504;2023-06-04T03:48:02;100471.44;;;35.25;28.34
59487;BME280;45298;54.918;73.504;2023-06-04T03:50:32;100467.00;;;35.24;27.51
59487;BME280;45298;54.918;73.504;2023-06-04T03:53:01;100468.09;;;35.23;28.29
59487;BME280;45298;54.918;73.504;2023-06-04T03:55:33;100460.25;;;35.15;28.06
59487;BME280;45298;54.918;73.504;2023-06-04T03:58:03;100467.50;;;35.21;29.01
59487;BME280;45298;54.918;73.504;2023-06-04T04:00:32;100458.09;;;35.17;27.29
59487;BME280;45298;54.918;73.504;2023-06-04T04:03:02;100462.94;;;35.27;27.62
59487;BME280;45298;54.918;73.504;2023-06-04T04:05:31;100452.91;;;35.21;29.13
59487;BME280;45298;54.918;73.504;2023-06-04T04:08:00;100473.78;;;35.34;27.01
59487;BME280;45298;54.918;73.504;2023-06-04T04:10:32;100458.81;;;35.30;28.97
59487;BME280;45298;54.918;73.504;2023-06-04T04:13:03;100448.81;;;35.40;30.56
59487;BME280;45298;54.918;73.504;2023-06-04T04:15:35;100457.59;;;35.54;29.54
59487;BME280;45298;54.918;73.504;2023-06-04T04:18:05;100456.66;;;35.66;29.28
59487;BME280;45298;54.918;73.504;2023-06-04T04:20:37;100476.72;;;35.78;27.58
59487;BME280;45298;54.918;73.504;2023-06-04T04:23:09;100465.16;;;35.81;27.12
59487;BME280;45298;54.918;73.504;2023-06-04T04:25:42;100456.63;;;35.83;27.72
59487;BME280;45298;54.918;73.504;2023-06-04T04:28:12;100434.59;;;35.66;28.82
59487;BME280;45298;54.918;73.504;2023-06-04T04:30:41;100465.16;;;35.81;27.87
59487;BME280;45298;54.918;73.504;2023-06-04T04:33:11;100465.50;;;35.85;28.87
59487;BME280;45298;54.918;73.504;2023-06-04T04:35:45;100464.47;;;35.91;27.03
59487;BME280;45298;54.918;73.504;2023-06-04T04:38:22;100465.41;;;35.97;27.94
59487;BME280;45298;54.918;73.504;2023-06-04T04:41:00;100472.75;;;36.08;26.79
59487;BME280;45298;54.918;73.504;2023-06-04T04:43:34;100458.44;;;36.11;27.83
59487;BME280;45298;54.918;73.504;2023-06-04T04:46:26;100463.13;;;36.33;27.04
59487;BME280;45298;54.918;73.504;2023-06-04T04:48:55;100462.66;;;36.41;24.87
59487;BME280;45298;54.918;73.504;2023-06-04T04:51:24;100449.94;;;36.40;25.32
59487;BME280;45298;54.918;73.504;2023-06-04T04:53:54;100453.22;;;36.37;26.67
59487;BME280;45298;54.918;73.504;2023-06-04T04:56:24;100427.28;;;36.16;25.28
59487;BME280;45298;54.918;73.504;2023-06-04T04:58:55;100452.44;;;36.42;24.92
59487;BME280;45298;54.918;73.504;2023-06-04T05:01:24;100446.44;;;36.45;24.40
59487;BME280;45298;54.918;73.504;2023-06-04T05:03:54;100452.78;;;36.45;23.45
59487;BME280;45298;54.918;73.504;2023-06-04T05:06:23;100441.81;;;36.51;25.35
59487;BME280;45298;54.918;73.504;2023-06-04T05:08:53;100457.13;;;36.64;24.03
59487;BME280;45298;54.918;73.504;2023-06-04T05:11:22;100448.63;;;36.70;23.32
59487;BME280;45298;54.918;73.504;2023-06-04T05:13:51;100436.75;;;36.70;23.70
59487;BME280;45298;54.918;73.504;2023-06-04T05:16:20;100440.34;;;36.70;23.70
59487;BME280;45298;54.918;73.504;2023-06-04T05:18:51;100447.47;;;36.66;22.58
59487;BME280;45298;54.918;73.504;2023-06-04T05:21:23;100454.91;;;36.60;21.67
59487;BME280;45298;54.918;73.504;2023-06-04T05:23:58;100451.63;;;36.64;21.10
59487;BME280;45298;54.918;73.504;2023-06-04T05:26:32;100444.00;;;36.76;19.86
59487;BME280;45298;54.918;73.504;2023-06-04T05:29:07;100432.19;;;36.86;18.99
59487;BME280;45298;54.918;73.504;2023-06-04T05:31:40;100434.53;;;36.94;18.17
59487;BME280;45298;54.918;73.504;2023-06-04T05:34:13;100422.75;;;36.82;20.42
59487;BME280;45298;54.918;73.504;2023-06-04T05:36:46;100432.84;;;36.93;21.11
59487;BME280;45298;54.918;73.504;2023-06-04T05:39:16;100428.50;;;37.02;19.16
59487;BME280;45298;54.918;73.504;2023-06-04T05:41:53;100424.13;;;37.07;19.42
59487;BME280;45298;54.918;73.504;2023-06-04T05:44:22;100420.66;;;37.22;20.11
59487;BME280;45298;54.918;73.504;2023-06-04T05:46:51;100429.34;;;37.35;18.46
59487;BME280;45298;54.918;73.504;2023-06-04T05:49:21;100429.34;;;37.41;21.10
59487;BME280;45298;54.918;73.504;2023-06-04T05:51:55;100416.97;;;37.43;18.94
59487;BME280;45298;54.918;73.504;2023-06-04T05:54:24;100429.47;;;37.56;19.54
59487;BME280;45298;54.918;73.504;2023-06-04T05:56:56;100431.78;;;37.70;18.33
59487;BME280;45298;54.918;73.504;2023-06-04T05:59:25;100421.03;;;37.78;18.91
59487;BME280;45298;54.918;73.504;2023-06-04T06:01:54;100410.22;;;37.77;18.63
59487;BME280;45298;54.918;73.504;2023-06-04T06:04:24;100404.41;;;37.73;17.85
59487;BME280;45298;54.918;73.504;2023-06-04T06:06:53;100424.09;;;37.82;17.64
59487;BME280;45298;54.918;73.504;2023-06-04T06:09:22;100413.03;;;37.82;17.36
59487;BME280;45298;54.918;73.504;2023-06-04T06:11:51;100409.19;;;37.88;18.90
59487;BME280;45298;54.918;73.504;2023-06-04T06:14:20;100407.09;;;38.06;18.24
59487;BME280;45298;54.918;73.504;2023-06-04T06:16:52;100412.09;;;38.14;17.64
59487;BME280;45298;54.918;73.504;2023-06-04T06:19:22;100411.25;;;38.14;19.58
59487;BME280;45298;54.918;73.504;2023-06-04T06:21:51;100411.84;;;38.21;18.44
59487;BME280;45298;54.918;73.504;2023-06-04T06:24:20;100412.13;;;38.24;17.69
59487;BME280;45298;54.918;73.504;2023-06-04T06:26:49;100411.84;;;38.26;19.79
59487;BME280;45298;54.918;73.504;2023-06-04T06:29:18;100398.84;;;38.27;19.55
59487;BME280;45298;54.918;73.504;2023-06-04T06:31:48;100406.38;;;38.47;18.58
59487;BME280;45298;54.918;73.504;2023-06-04T06:34:17;100401.13;;;38.40;16.69
59487;BME280;45298;54.918;73.504;2023-06-04T06:36:45;100399.13;;;38.35;16.15
59487;BME280;45298;54.918;73.504;2023-06-04T06:39:15;100390.53;;;38.27;17.77
59487;BME280;45298;54.918;73.504;2023-06-04T06:41:45;100389.16;;;38.29;19.21
59487;BME280;45298;54.918;73.504;2023-06-04T06:44:22;100379.50;;;38.37;17.04
59487;BME280;45298;54.918;73.504;2023-06-04T06:46:50;100385.63;;;38.49;16.69
59487;BME280;45298;54.918;73.504;2023-06-04T06:49:19;100348.94;;;38.11;18.18
59487;BME280;45298;54.918;73.504;2023-06-04T06:51:48;100386.44;;;38.45;17.93
59487;BME280;45298;54.918;73.504;2023-06-04T06:54:18;100382.25;;;38.37;16.71
59487;BME280;45298;54.918;73.504;2023-06-04T06:56:49;100388.09;;;38.46;17.90
59487;BME280;45298;54.918;73.504;2023-06-04T06:59:19;100374.00;;;38.52;18.88
59487;BME280;45298;54.918;73.504;2023-06-04T07:01:47;100374.28;;;38.77;16.83
59487;BME280;45298;54.918;73.504;2023-06-04T07:04:16;100336.03;;;38.74;17.97
59487;BME280;45298;54.918;73.504;2023-06-04T07:06:45;100357.94;;;39.06;16.78
59487;BME280;45298;54.918;73.504;2023-06-04T07:09:14;100356.84;;;39.07;16.38
59487;BME280;45298;54.918;73.504;2023-06-04T07:11:43;100353.50;;;39.10;16.20
59487;BME280;45298;54.918;73.504;2023-06-04T07:14:12;100363.75;;;39.10;16.77
59487;BME280;45298;54.918;73.504;2023-06-04T07:16:41;100355.19;;;39.01;15.81
59487;BME280;45298;54.918;73.504;2023-06-04T07:19:10;100355.44;;;39.05;16.37
59487;BME280;45298;54.918;73.504;2023-06-04T07:21:38;100351.28;;;39.07;16.51
59487;BME280;45298;54.918;73.504;2023-06-04T07:24:07;100349.03;;;39.14;16.80
59487;BME280;45298;54.918;73.504;2023-06-04T07:26:36;100324.66;;;38.96;16.97
59487;BME280;45298;54.918;73.504;2023-06-04T07:29:05;100338.81;;;39.05;15.58
59487;BME280;45298;54.918;73.504;2023-06-04T07:31:36;100336.88;;;39.00;16.89
59487;BME280;45298;54.918;73.504;2023-06-04T07:34:05;100336.03;;;39.05;15.22
59487;BME280;45298;54.918;73.504;2023-06-04T07:36:35;100333.00;;;39.06;17.00
59487;BME280;45298;54.918;73.504;2023-06-04T07:39:05;100317.72;;;39.09;16.08
59487;BME280;45298;54.918;73.504;2023-06-04T07:41:34;100313.53;;;39.17;16.04
59487;BME280;45298;54.918;73.504;2023-06-04T07:44:03;100323.53;;;39.18;15.46
59487;BME280;45298;54.918;73.504;2023-06-04T07:46:32;100298.59;;;39.12;15.94
59487;BME280;45298;54.918;73.504;2023-06-04T07:49:02;100317.41;;;39.26;16.30
59487;BME280;45298;54.918;73.504;2023-06-04T07:51:31;100307.97;;;39.27;16.68
59487;BME280;45298;54.918;73.504;2023-06-04T07:54:00;100310.78;;;39.32;15.38
59487;BME280;45298;54.918;73.504;2023-06-04T07:56:30;100312.13;;;39.40;17.22
59487;BME280;45298;54.918;73.504;2023-06-04T07:58:59;100304.63;;;39.46;16.42
59487;BME280;45298;54.918;73.504;2023-06-04T08:01:29;100304.56;;;39.56;17.21
59487;BME280;45298;54.918;73.504;2023-06-04T08:03:58;100309.56;;;39.54;16.93
59487;BME280;45298;54.918;73.504;2023-06-04T08:06:30;100275.50;;;39.27;17.35
59487;BME280;45298;54.918;73.504;2023-06-04T08:08:59;100287.13;;;39.45;17.86
59487;BME280;45298;54.918;73.504;2023-06-04T08:11:28;100285.19;;;39.46;16.14
59487;BME280;45298;54.918;73.504;2023-06-04T08:13:57;100285.19;;;39.51;16.27
59487;BME280;45298;54.918;73.504;2023-06-04T08:16:26;100253.03;;;39.34;18.22
59487;BME280;45298;54.918;73.504;2023-06-04T08:18:55;100284.63;;;39.49;17.15
59487;BME280;45298;54.918;73.504;2023-06-04T08:21:28;100262.47;;;39.38;15.64
59487;BME280;45298;54.918;73.504;2023-06-04T08:23:57;100278.03;;;39.29;15.68
59487;BME280;45298;54.918;73.504;2023-06-04T08:26:27;100270.00;;;39.17;17.15
59487;BME280;45298;54.918;73.504;2023-06-04T08:28:56;100273.06;;;39.31;17.06
59487;BME280;45298;54.918;73.504;2023-06-04T08:31:25;100264.44;;;39.38;16.70
59487;BME280;45298;54.918;73.504;2023-06-04T08:33:54;100259.13;;;39.41;15.98
59487;BME280;45298;54.918;73.504;2023-06-04T08:36:23;100263.28;;;39.44;16.24
59487;BME280;45298;54.918;73.504;2023-06-04T08:38:52;100273.22;;;39.55;17.21
59487;BME280;45298;54.918;73.504;2023-06-04T08:41:46;100253.06;;;39.29;17.25
59487;BME280;45298;54.918;73.504;2023-06-04T08:44:17;100270.25;;;39.36;18.15
59487;BME280;45298;54.918;73.504;2023-06-04T08:46:52;100254.16;;;39.28;18.19
59487;BME280;45298;54.918;73.504;2023-06-04T08:49:23;100261.91;;;39.41;16.98
59487;BME280;45298;54.918;73.504;2023-06-04T08:51:54;100256.59;;;39.50;17.94
59487;BME280;45298;54.918;73.504;2023-06-04T08:54:28;100253.00;;;39.50;17.25
59487;BME280;45298;54.918;73.504;2023-06-04T08:57:00;100241.06;;;39.49;19.39
59487;BME280;45298;54.918;73.504;2023-06-04T08:59:30;100244.94;;;39.53;17.18
59487;BME280;45298;54.918;73.504;2023-06-04T09:02:00;100249.88;;;39.62;18.33
59487;BME280;45298;54.918;73.504;2023-06-04T09:04:30;100254.28;;;39.68;16.67
59487;BME280;45298;54.918;73.504;2023-06-04T09:07:03;100249.59;;;39.63;16.51
59487;BME280;45298;54.918;73.504;2023-06-04T09:09:37;100232.47;;;39.46;16.97
59487;BME280;45298;54.918;73.504;2023-06-04T09:12:10;100256.94;;;39.33;17.60
59487;BME280;45298;54.918;73.504;2023-06-04T09:14:39;100220.97;;;39.07;16.67
59487;BME280;45298;54.918;73.504;2023-06-04T09:17:09;100234.50;;;39.19;17.33
59487;BME280;45298;54.918;73.504;2023-06-04T09:19:38;100208.47;;;39.05;18.00
59487;BME280;45298;54.918;73.504;2023-06-04T09:22:07;100240.31;;;39.23;17.78
59487;BME280;45298;54.918;73.504;2023-06-04T09:24:44;100233.94;;;39.22;17.54
59487;BME280;45298;54.918;73.504;2023-06-04T09:27:21;100238.09;;;39.14;17.11
59487;BME280;45298;54.918;73.504;2023-06-04T09:29:59;100235.38;;;39.09;17.68
59487;BME280;45298;54.918;73.504;2023-06-04T09:32:30;100190.50;;;38.81;16.74
59487;BME280;45298;54.918;73.504;2023-06-04T09:35:14;100243.66;;;39.14;17.09
59487;BME280;45298;54.918;73.504;2023-06-04T09:37:52;100235.41;;;38.94;17.19
59487;BME280;45298;54.918;73.504;2023-06-04T09:40:21;100216.03;;;38.83;16.38
59487;BME280;45298;54.918;73.504;2023-06-04T09:42:51;100224.06;;;38.85;17.66
59487;BME280;45298;54.918;73.504;2023-06-04T09:45:31;100217.41;;;38.81;18.46
59487;BME280;45298;54.918;73.504;2023-06-04T09:48:02;100210.44;;;38.78;17.75
59487;BME280;45298;54.918;73.504;2023-06-04T09:50:36;100222.69;;;38.72;18.67
59487;BME280;45298;54.918;73.504;2023-06-04T09:53:18;100221.28;;;38.69;16.65
59487;BME280;45298;54.918;73.504;2023-06-04T09:56:02;100212.72;;;38.71;16.98
59487;BME280;45298;54.918;73.504;2023-06-04T09:58:35;100228.50;;;38.76;17.22
59487;BME280;45298;54.918;73.504;2023-06-04T10:01:05;100215.75;;;38.75;19.50
59487;BME280;45298;54.918;73.504;2023-06-04T10:03:36;100224.03;;;38.90;19.37
59487;BME280;45298;54.918;73.504;2023-06-04T10:06:06;100203.25;;;38.77;18.52
59487;BME280;45298;54.918;73.504;2023-06-04T10:08:35;100215.44;;;38.76;17.28
59487;BME280;45298;54.918;73.504;2023-06-04T10:11:06;100207.44;;;38.64;17.81
59487;BME280;45298;54.918;73.504;2023-06-04T10:13:44;100212.16;;;38.64;20.18
59487;BME280;45298;54.918;73.504;2023-06-04T10:16:14;100177.53;;;38.46;18.01
59487;BME280;45298;54.918;73.504;2023-06-04T10:19:00;100189.19;;;38.43;17.82
59487;BME280;45298;54.918;73.504;2023-06-04T10:21:30;100188.66;;;38.41;18.00
59487;BME280;45298;54.918;73.504;2023-06-04T10:24:03;100205.22;;;38.35;18.29
59487;BME280;45298;54.918;73.504;2023-06-04T10:26:35;100197.22;;;38.34;19.11
59487;BME280;45298;54.918;73.504;2023-06-04T10:29:06;100201.09;;;38.33;17.62
59487;BME280;45298;54.918;73.504;2023-06-04T10:31:36;100150.13;;;38.08;18.45
59487;BME280;45298;54.918;73.504;2023-06-04T10:34:06;100193.03;;;38.31;18.14
59487;BME280;45298;54.918;73.504;2023-06-04T10:36:44;100169.53;;;38.13;18.62
59487;BME280;45298;54.918;73.504;2023-06-04T10:39:28;100190.81;;;38.13;17.66
59487;BME280;45298;54.918;73.504;2023-06-04T10:42:05;100194.69;;;38.12;18.78
59487;BME280;45298;54.918;73.504;2023-06-04T10:44:46;100194.97;;;38.05;18.29
59487;BME280;45298;54.918;73.504;2023-06-04T10:47:22;100186.41;;;37.96;18.38
59487;BME280;45298;54.918;73.504;2023-06-04T10:49:55;100199.41;;;37.90;17.94
59487;BME280;45298;54.918;73.504;2023-06-04T10:52:34;100188.00;;;37.76;19.94
59487;BME280;45298;54.918;73.504;2023-06-04T10:55:05;100175.25;;;37.65;19.42
59487;BME280;45298;54.918;73.504;2023-06-04T10:57:35;100173.59;;;37.69;20.43
59487;BME280;45298;54.918;73.504;2023-06-04T11:00:05;100181.34;;;37.72;18.75
59487;BME280;45298;54.918;73.504;2023-06-04T11:02:52;100165.00;;;37.55;18.18
59487;BME280;45298;54.918;73.504;2023-06-04T11:05:22;100157.50;;;37.50;19.10
59487;BME280;45298;54.918;73.504;2023-06-04T11:08:03;100165.53;;;37.52;18.70
59487;BME280;45298;54.918;73.504;2023-06-04T11:10:42;100177.72;;;37.61;19.34
59487;BME280;45298;54.918;73.504;2023-06-04T11:13:12;100169.41;;;37.51;20.39
59487;BME280;45298;54.918;73.504;2023-06-04T11:15:43;100157.16;;;37.42;18.80
59487;BME280;45298;54.918;73.504;2023-06-04T11:18:20;100171.00;;;37.42;18.38
59487;BME280;45298;54.918;73.504;2023-06-04T11:20:58;100165.16;;;37.33;18.03
59487;BME280;45298;54.918;73.504;2023-06-04T11:23:28;100161.28;;;37.24;20.85
59487;BME280;45298;54.918;73.504;2023-06-04T11:25:57;100161.56;;;37.27;21.61
59487;BME280;45298;54.918;73.504;2023-06-04T11:28:27;100160.44;;;37.23;21.43
59487;BME280;45298;54.918;73.504;2023-06-04T11:31:01;100145.19;;;37.15;20.41
59487;BME280;45298;54.918;73.504;2023-06-04T11:33:44;100157.06;;;37.05;21.29
59487;BME280;45298;54.918;73.504;2023-06-04T11:36:28;100157.06;;;37.05;20.08
59487;BME280;45298;54.918;73.504;2023-06-04T11:39:02;100162.59;;;37.05;21.10
59487;BME280;45298;54.918;73.504;2023-06-04T11:41:35;100160.63;;;37.01;21.71
59487;BME280;45298;54.918;73.504;2023-06-04T11:44:05;100171.97;;;37.04;19.44
59487;BME280;45298;54.918;73.504;2023-06-04T11:46:41;100164.47;;;36.95;20.40
59487;BME280;45298;54.918;73.504;2023-06-04T11:49:18;100158.59;;;36.86;19.50
59487;BME280;45298;54.918;73.504;2023-06-04T11:54:17;100144.44;;;36.77;20.27
59487;BME280;45298;54.918;73.504;2023-06-04T11:56:49;100152.50;;;36.84;21.24
59487;BME280;45298;54.918;73.504;2023-06-04T11:59:19;100155.78;;;36.81;19.32
59487;BME280;45298;54.918;73.504;2023-06-04T12:01:52;100148.56;;;36.69;21.38
59487;BME280;45298;54.918;73.504;2023-06-04T12:04:22;100123.00;;;36.47;18.77
59487;BME280;45298;54.918;73.504;2023-06-04T12:06:59;100152.66;;;36.62;20.64
59487;BME280;45298;54.918;73.504;2023-06-04T12:09:33;100152.38;;;36.58;19.16
59487;BME280;45298;54.918;73.504;2023-06-04T12:12:08;100148.72;;;36.52;19.81
59487;BME280;45298;54.918;73.504;2023-06-04T12:14:37;100148.16;;;36.50;19.73
59487;BME280;45298;54.918;73.504;2023-06-04T12:17:08;100151.47;;;36.47;19.41
59487;BME280;45298;54.918;73.504;2023-06-04T12:19:48;100152.78;;;36.44;19.75
59487;BME280;45298;54.918;73.504;2023-06-04T12:22:17;100146.94;;;36.36;20.08
59487;BME280;45298;54.918;73.504;2023-06-04T12:24:51;100140.00;;;36.33;18.52
59487;BME280;45298;54.918;73.504;2023-06-04T12:27:25;100138.88;;;36.29;21.63
59487;BME280;45298;54.918;73.504;2023-06-04T12:32:25;100133.81;;;36.15;20.86
59487;BME280;45298;54.918;73.504;2023-06-04T12:34:55;100126.84;;;36.08;20.23
59487;BME280;45298;54.918;73.504;2023-06-04T12:37:25;100144.34;;;36.19;20.93
59487;BME280;45298;54.918;73.504;2023-06-04T12:39:58;100130.97;;;36.05;20.78
59487;BME280;45298;54.918;73.504;2023-06-04T12:42:27;100134.28;;;36.07;20.99
59487;BME280;45298;54.918;73.504;2023-06-04T12:44:57;100133.13;;;35.98;20.93
59487;BME280;45298;54.918;73.504;2023-06-04T12:47:27;100136.97;;;35.97;20.78
59487;BME280;45298;54.918;73.504;2023-06-04T12:49:55;100131.72;;;35.95;20.75
59487;BME280;45298;54.918;73.504;2023-06-04T12:52:27;100139.66;;;35.92;20.79
59487;BME280;45298;54.918;73.504;2023-06-04T12:54:56;100135.75;;;35.88;21.21
59487;BME280;45298;54.918;73.504;2023-06-04T12:57:26;100117.91;;;35.68;20.74
59487;BME280;45298;54.918;73.504;2023-06-04T12:59:55;100132.00;;;35.72;22.55
59487;BME280;45298;54.918;73.504;2023-06-04T13:02:25;100090.97;;;35.48;21.99
59487;BME280;45298;54.918;73.504;2023-06-04T13:04:55;100133.00;;;35.60;20.96
59487;BME280;45298;54.918;73.504;2023-06-04T13:07:24;100129.38;;;35.54;23.03